createdAt,value
2019-02-08T00:01:04.645Z,47.05
2019-02-08T00:03:32.535Z,51.23
2019-02-08T00:06:00.810Z,51.90
2019-02-08T00:08:28.807Z,44.60
2019-02-08T00:10:56.667Z,46.37
2019-02-08T00:13:24.601Z,45.05
2019-02-08T00:15:52.727Z,45.23
2019-02-08T00:18:20.723Z,40.95
2019-02-08T00:20:48.827Z,41.45
2019-02-08T00:23:26.150Z,43.78
2019-02-08T00:25:46.725Z,38.58
2019-02-08T00:28:14.677Z,41.15
2019-02-08T00:30:43.014Z,44.42
2019-02-08T00:33:11.064Z,39.63
2019-02-08T00:35:38.961Z,39.95
2019-02-08T00:38:07.007Z,44.08
2019-02-08T00:40:34.899Z,34.43
2019-02-08T00:43:03.125Z,39.67
2019-02-08T00:45:30.986Z,38.45
2019-02-08T00:47:58.743Z,40.88
2019-02-08T00:50:26.894Z,40.20
2019-02-08T00:52:55.153Z,37.70
2019-02-08T00:55:23.517Z,36.20
2019-02-08T00:57:51.932Z,37.03
2019-02-08T01:00:21.318Z,37.78
2019-02-08T01:02:49.633Z,36.83
2019-02-08T01:05:18.271Z,37.70
2019-02-08T01:07:46.300Z,37.80
2019-02-08T01:10:23.508Z,39.90
2019-02-08T01:12:52.232Z,40.70
2019-02-08T01:15:21.632Z,34.30
2019-02-08T01:17:49.581Z,38.73
2019-02-08T01:20:18.547Z,39.58
2019-02-08T01:22:46.512Z,40.28
2019-02-08T01:25:17.051Z,35.50
2019-02-08T01:27:44.986Z,33.60
2019-02-08T01:30:15.428Z,37.65
2019-02-08T01:32:43.437Z,36.68
2019-02-08T01:35:14.161Z,41.45
2019-02-08T01:37:42.877Z,33.60
2019-02-08T01:40:13.858Z,37.35
2019-02-08T01:42:41.697Z,36.35
2019-02-08T01:45:10.392Z,38.80
2019-02-08T01:48:14.191Z,34.67
2019-02-08T01:50:42.291Z,32.85
2019-02-08T01:53:11.262Z,34.65
2019-02-08T01:55:39.496Z,37.25
2019-02-08T01:58:07.475Z,32.60
2019-02-08T02:00:37.618Z,34.90
2019-02-08T02:03:06.910Z,32.95
2019-02-08T02:05:34.973Z,31.05
2019-02-08T02:08:04.074Z,33.88
2019-02-08T02:10:37.026Z,31.57
2019-02-08T02:13:05.537Z,29.40
2019-02-08T02:15:33.637Z,34.95
2019-02-08T02:18:01.603Z,34.48
2019-02-08T02:20:31.732Z,29.85
2019-02-08T02:22:59.731Z,30.62
2019-02-08T02:25:27.773Z,32.28
2019-02-08T02:27:55.705Z,27.80
2019-02-08T02:30:26.102Z,29.92
2019-02-08T02:32:53.966Z,27.35
2019-02-08T02:35:22.623Z,27.85
2019-02-08T02:37:51.268Z,29.12
2019-02-08T02:40:20.156Z,29.35
2019-02-08T02:42:48.512Z,29.67
2019-02-08T02:45:19.603Z,30.50
2019-02-08T02:47:47.551Z,28.90
2019-02-08T02:50:15.763Z,25.80
2019-02-08T02:52:43.656Z,30.68
2019-02-08T02:55:33.469Z,30.00
2019-02-08T02:58:01.362Z,29.63
2019-02-08T03:00:38.256Z,30.32
2019-02-08T03:03:06.560Z,29.42
2019-02-08T03:05:34.652Z,30.15
2019-02-08T03:08:03.331Z,30.05
2019-02-08T03:10:31.317Z,33.83
2019-02-08T03:12:59.353Z,31.45
2019-02-08T03:15:27.343Z,31.40
2019-02-08T03:17:55.226Z,36.03
2019-02-08T03:20:23.513Z,28.92
2019-02-08T03:22:51.799Z,32.20
2019-02-08T03:25:23.589Z,28.40
2019-02-08T03:27:52.346Z,29.23
2019-02-08T03:30:25.659Z,30.40
2019-02-08T03:32:55.475Z,28.55
2019-02-08T03:35:24.636Z,28.05
2019-02-08T03:37:52.629Z,27.58
2019-02-08T03:40:24.879Z,29.18
2019-02-08T03:42:53.109Z,31.15
2019-02-08T03:45:21.281Z,25.92
2019-02-08T03:47:49.748Z,26.73
2019-02-08T03:50:19.062Z,23.05
2019-02-08T03:52:47.149Z,25.25
2019-02-08T03:55:16.688Z,24.95
2019-02-08T03:57:44.649Z,21.80
2019-02-08T04:00:28.272Z,25.32
2019-02-08T04:02:56.245Z,24.07
2019-02-08T04:05:24.729Z,22.05
2019-02-08T04:07:52.628Z,21.55
2019-02-08T04:10:21.922Z,21.40
2019-02-08T04:12:49.913Z,20.15
2019-02-08T04:15:18.239Z,20.77
2019-02-08T04:17:47.015Z,21.40
2019-02-08T04:20:16.596Z,21.85
2019-02-08T04:22:44.757Z,23.05
2019-02-08T04:25:13.848Z,22.70
2019-02-08T04:27:42.633Z,20.55
2019-02-08T04:30:17.506Z,20.48
2019-02-08T04:32:46.084Z,19.82
2019-02-08T04:35:14.030Z,19.50
2019-02-08T04:37:41.920Z,23.67
2019-02-08T04:40:11.139Z,21.80
2019-02-08T04:42:39.083Z,23.55
2019-02-08T04:45:07.826Z,25.08
2019-02-08T04:47:35.683Z,22.58
2019-02-08T04:50:05.027Z,20.48
2019-02-08T04:52:33.297Z,21.73
2019-02-08T04:55:01.129Z,19.62
2019-02-08T04:57:29.110Z,20.10
2019-02-08T04:59:56.892Z,19.25
2019-02-08T05:02:24.903Z,22.90
2019-02-08T05:04:52.749Z,26.65
2019-02-08T05:07:20.889Z,24.20
2019-02-08T05:09:48.855Z,25.70
2019-02-08T05:12:16.701Z,22.05
2019-02-08T05:14:44.703Z,23.00
2019-02-08T05:17:12.582Z,24.15
2019-02-08T05:19:40.405Z,24.00
2019-02-08T05:22:08.448Z,23.57
2019-02-08T05:24:36.410Z,24.85
2019-02-08T05:27:04.393Z,25.00
2019-02-08T05:29:33.005Z,26.00
2019-02-08T05:32:01.106Z,22.13
2019-02-08T05:34:28.962Z,22.67
2019-02-08T05:36:57.486Z,23.20
2019-02-08T05:39:26.143Z,23.35
2019-02-08T05:41:54.072Z,25.43
2019-02-08T05:44:21.950Z,24.60
2019-02-08T05:46:49.907Z,24.90
2019-02-08T05:49:17.796Z,28.30
2019-02-08T05:51:46.289Z,26.27
2019-02-08T05:54:14.241Z,25.68
2019-02-08T05:56:42.591Z,23.15
2019-02-08T05:59:10.465Z,23.57
2019-02-08T06:01:38.490Z,28.02
2019-02-08T06:04:06.574Z,24.35
2019-02-08T06:06:34.582Z,24.23
2019-02-08T06:09:13.514Z,26.27
2019-02-08T06:11:41.550Z,23.57
2019-02-08T06:14:09.614Z,28.25
2019-02-08T06:16:37.576Z,24.15
2019-02-08T06:19:05.875Z,26.90
2019-02-08T06:21:33.805Z,26.60
2019-02-08T06:24:01.670Z,25.85
2019-02-08T06:26:29.687Z,31.30
2019-02-08T06:28:57.727Z,27.15
2019-02-08T06:31:25.965Z,25.65
2019-02-08T06:33:53.949Z,27.13
2019-02-08T06:36:21.948Z,25.10
2019-02-08T06:38:49.841Z,27.80
2019-02-08T06:41:18.007Z,24.65
2019-02-08T06:43:46.247Z,24.63
2019-02-08T06:46:14.123Z,26.50
2019-02-08T06:48:42.168Z,28.38
2019-02-08T06:51:10.030Z,26.33
2019-02-08T06:53:38.101Z,27.40
2019-02-08T06:56:09.366Z,27.00
2019-02-08T06:58:45.645Z,33.45
2019-02-08T07:01:36.030Z,65.85
2019-02-08T07:04:22.539Z,34.50
2019-02-08T07:07:22.291Z,28.00
2019-02-08T07:10:12.626Z,26.70
2019-02-08T07:13:17.934Z,30.00
2019-02-08T07:16:05.443Z,33.40
2019-02-08T07:18:41.860Z,26.05
2019-02-08T07:21:32.378Z,29.60
2019-02-08T07:24:18.501Z,28.17
2019-02-08T07:27:11.963Z,27.62
2019-02-08T07:30:02.546Z,26.02
2019-02-08T07:32:48.511Z,29.90
2019-02-08T07:35:48.611Z,28.70
2019-02-08T07:38:42.498Z,29.20
2019-02-08T07:41:29.829Z,28.30
2019-02-08T07:44:22.876Z,29.75
2019-02-08T07:47:14.661Z,32.23
2019-02-08T07:49:51.642Z,32.75
2019-02-08T07:52:42.222Z,35.85
2019-02-08T07:55:54.525Z,35.30
2019-02-08T07:58:47.944Z,31.42
2019-02-08T08:01:48.437Z,33.95
2019-02-08T08:04:34.935Z,30.80
2019-02-08T08:07:09.812Z,29.18
2019-02-08T08:10:03.164Z,31.77
2019-02-08T08:12:54.785Z,29.07
2019-02-08T08:15:40.949Z,27.40
2019-02-08T08:18:25.360Z,26.45
2019-02-08T08:21:12.774Z,29.55
2019-02-08T08:24:13.829Z,28.67
2019-02-08T08:27:14.688Z,25.88
2019-02-08T08:30:01.480Z,24.00
2019-02-08T08:32:43.243Z,26.55
2019-02-08T08:35:39.942Z,28.57
2019-02-08T08:39:04.319Z,25.08
2019-02-08T08:42:12.811Z,27.90
2019-02-08T08:45:16.928Z,24.80
2019-02-08T08:48:34.955Z,25.43
2019-02-08T08:51:31.357Z,25.90
2019-02-08T08:54:43.886Z,28.07
2019-02-08T08:58:02.060Z,22.45
2019-02-08T09:01:14.362Z,22.50
2019-02-08T09:04:25.695Z,24.35
2019-02-08T09:07:25.061Z,21.27
2019-02-08T09:10:49.413Z,24.35
2019-02-08T09:13:42.778Z,21.90
2019-02-08T09:16:52.746Z,22.02
2019-02-08T09:20:02.941Z,22.87
2019-02-08T09:23:10.704Z,21.90
2019-02-08T09:26:13.781Z,22.95
2019-02-08T09:29:05.635Z,24.47
2019-02-08T09:32:10.685Z,22.60
2019-02-08T09:35:34.156Z,20.95
2019-02-08T09:38:40.704Z,21.65
2019-02-08T09:41:45.737Z,20.62
2019-02-08T09:44:58.713Z,22.17
2019-02-08T09:48:08.806Z,19.05
2019-02-08T09:51:13.573Z,17.82
2019-02-08T09:54:27.716Z,20.40
2019-02-08T09:57:27.707Z,17.85
2019-02-08T10:00:42.880Z,18.05
2019-02-08T10:03:59.851Z,17.77
2019-02-08T10:07:05.016Z,15.70
2019-02-08T10:10:19.693Z,16.80
2019-02-08T10:13:40.664Z,11.75
2019-02-08T10:16:37.662Z,14.58
2019-02-08T10:19:55.314Z,14.75
2019-02-08T10:23:18.528Z,14.20
2019-02-08T10:26:35.948Z,17.98
2019-02-08T10:29:40.713Z,18.10
2019-02-08T10:32:42.891Z,17.70
2019-02-08T10:35:54.662Z,16.07
2019-02-08T10:39:18.923Z,18.60
2019-02-08T10:42:30.504Z,16.90
2019-02-08T10:45:34.635Z,15.13
2019-02-08T10:48:55.316Z,22.17
2019-02-08T10:52:00.413Z,17.65
2019-02-08T10:55:22.889Z,18.65
2019-02-08T10:58:30.973Z,19.25
2019-02-08T11:01:32.917Z,16.80
2019-02-08T11:04:30.851Z,17.70
2019-02-08T11:07:48.331Z,15.95
2019-02-08T11:11:08.208Z,16.67
2019-02-08T11:14:16.121Z,15.23
2019-02-08T11:17:22.712Z,19.07
2019-02-08T11:20:05.115Z,17.47
2019-02-08T11:22:33.203Z,18.40
2019-02-08T11:25:01.233Z,16.53
2019-02-08T11:27:29.239Z,14.93
2019-02-08T11:29:57.357Z,13.63
2019-02-08T11:32:28.669Z,17.00
2019-02-08T11:34:55.263Z,16.60
2019-02-08T11:37:23.154Z,15.43
2019-02-08T11:39:51.327Z,16.73
2019-02-08T11:42:19.995Z,16.60
2019-02-08T11:44:48.039Z,18.73
2019-02-08T11:47:16.103Z,16.60
2019-02-08T11:49:44.002Z,14.33
2019-02-08T11:52:11.970Z,14.67
2019-02-08T11:54:40.358Z,16.93
2019-02-08T11:57:08.316Z,15.83
2019-02-08T11:59:36.368Z,18.47
2019-02-08T12:02:05.221Z,17.40
2019-02-08T12:04:33.668Z,16.90
2019-02-08T12:07:01.653Z,16.10
2019-02-08T12:09:30.344Z,15.73
2019-02-08T12:11:58.255Z,15.47
2019-02-08T12:14:26.106Z,17.60
2019-02-08T12:16:54.042Z,15.07
2019-02-08T12:19:22.013Z,19.10
2019-02-08T12:21:53.202Z,18.37
2019-02-08T12:24:21.239Z,19.80
2019-02-08T12:26:49.014Z,15.57
2019-02-08T12:29:17.022Z,15.73
2019-02-08T12:31:44.879Z,15.87
2019-02-08T12:34:12.854Z,17.73
2019-02-08T12:36:40.826Z,17.27
2019-02-08T12:39:10.349Z,17.20
2019-02-08T12:41:38.604Z,15.30
2019-02-08T12:44:06.998Z,19.10
2019-02-08T12:46:35.652Z,18.30
2019-02-08T12:49:03.865Z,22.23
2019-02-08T12:51:31.751Z,16.77
2019-02-08T12:53:59.798Z,18.97
2019-02-08T12:56:27.828Z,12.50
2019-02-08T12:58:56.552Z,12.33
2019-02-08T13:01:24.590Z,13.30
2019-02-08T13:03:52.687Z,15.10
2019-02-08T13:06:20.682Z,15.07
2019-02-08T13:08:48.462Z,21.40
2019-02-08T13:11:16.491Z,16.20
2019-02-08T13:13:44.377Z,15.07
2019-02-08T13:16:12.409Z,19.33
2019-02-08T13:18:40.270Z,42.47
2019-02-08T13:21:08.233Z,49.57
2019-02-08T13:23:36.181Z,18.77
2019-02-08T13:26:04.311Z,12.73
2019-02-08T13:28:32.748Z,15.17
2019-02-08T13:31:00.530Z,12.23
2019-02-08T13:33:28.443Z,16.33
2019-02-08T13:35:56.205Z,16.23
2019-02-08T13:38:24.310Z,17.97
2019-02-08T13:40:52.379Z,14.83
2019-02-08T13:43:20.414Z,14.47
2019-02-08T13:45:48.464Z,17.80
2019-02-08T13:48:16.219Z,14.10
2019-02-08T13:50:44.261Z,13.93
2019-02-08T13:53:13.024Z,11.67
2019-02-08T13:55:50.054Z,13.80
2019-02-08T13:58:18.014Z,14.30
2019-02-08T14:00:46.024Z,13.47
2019-02-08T14:03:13.880Z,12.87
2019-02-08T14:05:41.777Z,13.20
2019-02-08T14:08:09.837Z,13.87
2019-02-08T14:10:37.831Z,11.87
2019-02-08T14:13:05.982Z,16.87
2019-02-08T14:15:34.244Z,12.77
2019-02-08T14:18:02.419Z,13.83
2019-02-08T14:20:30.437Z,14.80
2019-02-08T14:22:58.387Z,13.30
2019-02-08T14:25:26.695Z,15.93
2019-02-08T14:27:54.773Z,17.87
2019-02-08T14:30:33.927Z,15.30
2019-02-08T14:33:01.931Z,12.87
2019-02-08T14:35:30.124Z,14.57
2019-02-08T14:37:59.286Z,14.40
2019-02-08T14:40:27.360Z,14.87
2019-02-08T14:42:55.493Z,14.50
2019-02-08T14:45:24.085Z,13.43
2019-02-08T14:47:52.144Z,15.77
2019-02-08T14:50:21.851Z,13.40
2019-02-08T14:52:49.965Z,12.40
2019-02-08T14:55:18.089Z,13.87
2019-02-08T14:57:46.811Z,13.10
2019-02-08T15:00:17.482Z,14.43
2019-02-08T15:02:45.515Z,15.30
2019-02-08T15:05:14.382Z,15.40
2019-02-08T15:07:42.435Z,17.80
2019-02-08T15:10:16.279Z,15.23
2019-02-08T15:12:44.321Z,15.93
2019-02-08T15:15:12.314Z,14.93
2019-02-08T15:17:40.510Z,17.00
2019-02-08T15:20:15.488Z,20.23
2019-02-08T15:22:43.582Z,18.23
2019-02-08T15:25:12.134Z,20.23
2019-02-08T15:27:40.012Z,19.77
2019-02-08T15:30:10.565Z,16.73
2019-02-08T15:32:38.444Z,17.20
2019-02-08T15:35:07.051Z,16.67
2019-02-08T15:37:34.921Z,19.17
2019-02-08T15:40:04.420Z,63.47
2019-02-08T15:42:32.213Z,45.43
2019-02-08T15:45:00.283Z,95.60
2019-02-08T15:47:28.585Z,811.50
2019-02-08T15:49:56.515Z,734.87
2019-02-08T15:52:24.570Z,670.43
2019-02-08T15:54:52.467Z,734.60
2019-02-08T15:57:20.511Z,656.20
2019-02-08T15:59:49.137Z,295.50
2019-02-08T16:02:17.192Z,301.23
2019-02-08T16:04:46.037Z,130.57
2019-02-08T16:07:13.969Z,87.27
2019-02-08T16:09:42.063Z,45.33
2019-02-08T16:12:10.539Z,35.80
2019-02-08T16:14:38.342Z,31.97
2019-02-08T16:17:06.578Z,24.90
2019-02-08T16:19:39.249Z,25.67
2019-02-08T16:22:07.931Z,26.60
2019-02-08T16:24:35.844Z,21.90
2019-02-08T16:27:04.624Z,25.93
2019-02-08T16:29:32.594Z,22.37
2019-02-08T16:32:00.472Z,23.20
2019-02-08T16:34:28.647Z,24.00
2019-02-08T16:37:03.397Z,22.70
2019-02-08T16:39:26.362Z,23.50
2019-02-08T16:41:54.364Z,22.33
2019-02-08T16:44:22.641Z,25.20
2019-02-08T16:46:50.618Z,21.17
2019-02-08T16:49:18.573Z,22.23
2019-02-08T16:51:46.442Z,20.93
2019-02-08T16:54:14.438Z,27.73
2019-02-08T16:56:42.460Z,23.13
2019-02-08T16:59:10.419Z,22.23
2019-02-08T17:01:38.464Z,31.47
2019-02-08T17:04:06.364Z,46.47
2019-02-08T17:06:34.383Z,55.13
2019-02-08T17:09:02.462Z,86.93
2019-02-08T17:11:30.315Z,135.53
2019-02-08T17:13:58.093Z,108.20
2019-02-08T17:16:26.009Z,99.70
2019-02-08T17:18:53.827Z,88.97
2019-02-08T17:21:21.697Z,77.80
2019-02-08T17:23:49.558Z,56.58
2019-02-08T17:26:17.698Z,49.07
2019-02-08T17:28:45.690Z,39.87
2019-02-08T17:31:13.505Z,37.63
2019-02-08T17:33:41.319Z,37.87
2019-02-08T17:36:09.360Z,35.60
2019-02-08T17:38:37.156Z,45.17
2019-02-08T17:41:05.670Z,37.90
2019-02-08T17:43:33.529Z,33.03
2019-02-08T17:46:01.931Z,40.53
2019-02-08T17:48:29.963Z,38.23
2019-02-08T17:50:57.722Z,34.97
2019-02-08T17:53:25.555Z,41.20
2019-02-08T17:55:53.549Z,43.33
2019-02-08T17:58:21.576Z,42.80
2019-02-08T18:00:51.580Z,39.90
2019-02-08T18:03:19.827Z,36.15
2019-02-08T18:05:47.943Z,36.80
2019-02-08T18:08:15.749Z,29.05
2019-02-08T18:10:43.778Z,27.87
2019-02-08T18:13:11.828Z,30.75
2019-02-08T18:15:40.746Z,35.90
2019-02-08T18:18:11.116Z,65.90
2019-02-08T18:20:42.326Z,61.37
2019-02-08T18:23:10.324Z,79.30
2019-02-08T18:25:38.213Z,78.87
2019-02-08T18:28:11.001Z,65.50
2019-02-08T18:30:36.398Z,54.70
2019-02-08T18:33:04.464Z,47.17
2019-02-08T18:35:32.452Z,39.03
2019-02-08T18:38:00.416Z,32.23
2019-02-08T18:40:28.454Z,26.68
2019-02-08T18:42:56.541Z,27.85
2019-02-08T18:45:26.066Z,27.60
2019-02-08T18:47:54.030Z,30.60
2019-02-08T18:50:24.894Z,31.95
2019-02-08T18:52:52.998Z,36.30
2019-02-08T18:55:21.099Z,34.25
2019-02-08T18:57:49.635Z,33.28
2019-02-08T19:00:23.162Z,38.70
2019-02-08T19:02:51.100Z,40.03
2019-02-08T19:05:19.096Z,36.17
2019-02-08T19:07:57.906Z,39.48
2019-02-08T19:10:25.992Z,37.83
2019-02-08T19:12:53.956Z,49.03
2019-02-08T19:15:22.256Z,36.17
2019-02-08T19:17:51.054Z,36.28
2019-02-08T19:20:20.724Z,37.30
2019-02-08T19:22:48.976Z,34.43
2019-02-08T19:25:19.584Z,45.05
2019-02-08T19:27:47.483Z,34.45
2019-02-08T19:30:19.482Z,33.55
2019-02-08T19:32:47.613Z,32.15
2019-02-08T19:35:15.762Z,36.17
2019-02-08T19:37:53.521Z,28.85
2019-02-08T19:40:24.299Z,31.55
2019-02-08T19:42:52.205Z,27.27
2019-02-08T19:45:20.728Z,27.60
2019-02-08T19:47:48.711Z,24.47
2019-02-08T19:50:25.269Z,27.75
2019-02-08T19:52:53.475Z,27.45
2019-02-08T19:55:21.455Z,26.52
2019-02-08T19:57:49.507Z,27.73
2019-02-08T20:00:21.543Z,30.90
2019-02-08T20:02:49.667Z,31.40
2019-02-08T20:05:19.610Z,38.20
2019-02-08T20:07:47.702Z,40.52
2019-02-08T20:10:27.681Z,39.30
2019-02-08T20:12:55.747Z,39.75
2019-02-08T20:15:23.730Z,42.65
2019-02-08T20:17:51.719Z,38.85
2019-02-08T20:20:19.743Z,40.15
2019-02-08T20:22:48.020Z,40.40
2019-02-08T20:25:21.618Z,42.62
2019-02-08T20:27:50.101Z,44.20
2019-02-08T20:30:19.904Z,43.48
2019-02-08T20:32:48.202Z,47.38
2019-02-08T20:35:17.853Z,45.38
2019-02-08T20:37:46.195Z,47.78
2019-02-08T20:40:19.614Z,46.20
2019-02-08T20:42:47.938Z,49.15
2019-02-08T20:45:19.108Z,43.80
2019-02-08T20:47:47.182Z,45.23
2019-02-08T20:50:16.454Z,39.13
2019-02-08T20:52:45.337Z,45.28
2019-02-08T20:55:15.029Z,49.58
2019-02-08T20:57:43.082Z,46.77
2019-02-08T21:00:35.838Z,64.53
2019-02-08T21:03:07.227Z,69.75
2019-02-08T21:05:35.340Z,73.50
2019-02-08T21:08:04.106Z,75.47
2019-02-08T21:10:32.068Z,89.25
2019-02-08T21:13:00.116Z,77.15
2019-02-08T21:15:28.173Z,85.10
2019-02-08T21:17:56.313Z,85.38
2019-02-08T21:20:24.426Z,99.58
2019-02-08T21:22:52.425Z,109.92
2019-02-08T21:25:25.210Z,123.38
2019-02-08T21:27:53.272Z,126.00
2019-02-08T21:30:21.426Z,95.28
2019-02-08T21:32:49.462Z,88.30
2019-02-08T21:35:18.320Z,87.00
2019-02-08T21:37:47.996Z,85.25
2019-02-08T21:40:18.349Z,84.90
2019-02-08T21:42:46.303Z,72.35
2019-02-08T21:45:18.447Z,67.75
2019-02-08T21:47:46.415Z,74.05
2019-02-08T21:50:16.951Z,73.50
2019-02-08T21:52:45.509Z,71.07
2019-02-08T21:55:14.098Z,64.87
2019-02-08T21:57:41.989Z,65.62
2019-02-08T22:00:22.776Z,59.98
2019-02-08T22:02:51.221Z,50.05
2019-02-08T22:05:21.856Z,38.45
2019-02-08T22:07:50.044Z,45.75
2019-02-08T22:10:18.125Z,40.23
2019-02-08T22:12:46.164Z,39.45
2019-02-08T22:15:19.732Z,39.23
2019-02-08T22:17:47.835Z,43.70
2019-02-08T22:20:16.804Z,42.83
2019-02-08T22:22:45.236Z,45.60
2019-02-08T22:25:15.213Z,46.75
2019-02-08T22:27:43.272Z,48.65
2019-02-08T22:30:16.848Z,41.08
2019-02-08T22:32:45.065Z,42.53
2019-02-08T22:35:13.424Z,38.90
2019-02-08T22:37:41.354Z,41.90
2019-02-08T22:40:11.793Z,50.60
2019-02-08T22:42:39.766Z,52.25
2019-02-08T22:45:13.192Z,45.28
2019-02-08T22:47:41.172Z,45.63
2019-02-08T22:50:10.344Z,45.58
2019-02-08T22:52:38.372Z,48.17
2019-02-08T22:55:08.330Z,36.85
2019-02-08T22:57:36.223Z,39.20
2019-02-08T23:00:25.880Z,31.65
2019-02-08T23:02:53.858Z,32.88
2019-02-08T23:05:21.842Z,33.23
2019-02-08T23:07:49.856Z,31.77
2019-02-08T23:10:17.846Z,29.30
2019-02-08T23:12:45.854Z,32.48
2019-02-08T23:15:14.626Z,29.63
2019-02-08T23:17:42.663Z,33.18
2019-02-08T23:20:11.365Z,34.25
2019-02-08T23:22:39.465Z,33.90
2019-02-08T23:25:07.659Z,31.62
2019-02-08T23:27:36.118Z,30.23
2019-02-08T23:30:05.920Z,34.13
2019-02-08T23:32:33.777Z,31.57
2019-02-08T23:35:01.622Z,31.12
2019-02-08T23:37:29.492Z,34.58
2019-02-08T23:39:57.543Z,31.17
2019-02-08T23:42:25.561Z,32.95
2019-02-08T23:44:53.427Z,31.23
2019-02-08T23:47:21.269Z,32.08
2019-02-08T23:49:49.029Z,33.90
2019-02-08T23:52:17.056Z,36.35
2019-02-08T23:54:44.831Z,29.80
2019-02-08T23:57:12.736Z,33.48
2019-02-08T23:59:40.676Z,34.03
